Terminal Aerodrome Forecast
Issued by NWS

Current Version | Previous Version | Text Only | Print | Product List | Glossary Off
Versions: 1 2 3 4 5 6 7 8 9 10 11 12 13 14 15 16 17 18 19 20 21 22

000
FTUS41 KILN 151134
TAFLUK
TAF
KLUK 151134Z 1512/1612 VRB03KT 5SM BR SCT040 SCT250
     FM151300 VRB03KT P6SM BKN040
     FM152300 26005KT P6SM SCT200
     FM160400 00000KT 4SM BR SCT200
     FM160800 00000KT 1 1/2SM BR SCT150=

USA.gov is the U.S. government's official web portal to all federal, state and local government web resources and services.